createdAt,value
2019-01-11T00:00:00.365Z,2.23
2019-01-11T00:02:30.246Z,4.30
2019-01-11T00:05:00.013Z,4.03
2019-01-11T00:07:29.684Z,4.20
2019-01-11T00:09:59.523Z,3.67
2019-01-11T00:12:29.098Z,3.63
2019-01-11T00:14:58.829Z,3.13
2019-01-11T00:17:28.438Z,3.00
2019-01-11T00:20:03.456Z,3.50
2019-01-11T00:22:29.313Z,3.80
2019-01-11T00:24:59.471Z,3.93
2019-01-11T00:27:29.172Z,3.73
2019-01-11T00:30:00.695Z,1.97
2019-01-11T00:32:30.838Z,5.70
2019-01-11T00:35:01.189Z,3.07
2019-01-11T00:37:31.279Z,1.80
2019-01-11T00:40:01.521Z,4.13
2019-01-11T00:42:31.905Z,3.80
2019-01-11T00:45:02.055Z,3.73
2019-01-11T00:47:32.013Z,3.97
2019-01-11T00:50:02.042Z,4.60
2019-01-11T00:52:31.772Z,2.00
2019-01-11T00:55:02.123Z,4.73
2019-01-11T00:57:31.988Z,4.10
2019-01-11T01:00:02.132Z,6.20
2019-01-11T01:02:31.858Z,5.83
2019-01-11T01:05:01.771Z,4.53
2019-01-11T01:07:31.967Z,3.47
2019-01-11T01:10:01.771Z,4.70
2019-01-11T01:12:31.663Z,4.93
2019-01-11T01:15:01.584Z,2.87
2019-01-11T01:17:31.593Z,4.03
2019-01-11T01:20:01.272Z,4.93
2019-01-11T01:22:30.923Z,5.70
2019-01-11T01:25:00.717Z,4.70
2019-01-11T01:27:31.028Z,5.30
2019-01-11T01:30:00.832Z,4.97
2019-01-11T01:32:30.968Z,4.00
2019-01-11T01:35:01.076Z,5.87
2019-01-11T01:37:32.607Z,6.40
2019-01-11T01:40:02.984Z,6.23
2019-01-11T01:42:33.032Z,3.90
2019-01-11T01:45:02.825Z,5.50
2019-01-11T01:47:32.691Z,3.33
2019-01-11T01:50:02.852Z,4.57
2019-01-11T01:52:33.109Z,3.10
2019-01-11T01:55:02.934Z,5.73
2019-01-11T01:57:32.788Z,4.07
2019-01-11T02:00:02.392Z,3.37
2019-01-11T02:02:32.545Z,5.43
2019-01-11T02:05:02.402Z,2.80
2019-01-11T02:07:32.118Z,6.73
2019-01-11T02:10:02.168Z,6.10
2019-01-11T02:12:31.758Z,4.93
2019-01-11T02:15:01.785Z,1.67
2019-01-11T02:17:31.353Z,4.97
2019-01-11T02:20:01.253Z,5.33
2019-01-11T02:22:33.194Z,4.80
2019-01-11T02:25:02.948Z,5.10
2019-01-11T02:27:32.590Z,4.33
2019-01-11T02:30:02.234Z,7.13
2019-01-11T02:32:31.922Z,4.83
2019-01-11T02:35:01.471Z,3.37
2019-01-11T02:37:31.386Z,2.90
2019-01-11T02:40:01.065Z,6.43
2019-01-11T02:42:30.693Z,3.17
2019-01-11T02:45:00.704Z,4.07
2019-01-11T02:47:30.809Z,7.57
2019-01-11T02:50:00.498Z,5.17
2019-01-11T02:52:30.717Z,5.80
2019-01-11T02:55:00.475Z,5.33
2019-01-11T02:57:30.173Z,6.90
2019-01-11T02:59:59.799Z,4.00
2019-01-11T03:02:29.415Z,1.50
2019-01-11T03:04:59.433Z,5.70
2019-01-11T03:07:29.029Z,7.23
2019-01-11T03:09:59.052Z,3.40
2019-01-11T03:12:28.740Z,7.67
2019-01-11T03:14:58.387Z,4.10
2019-01-11T03:17:28.003Z,4.50
2019-01-11T03:19:57.672Z,9.07
2019-01-11T03:22:27.703Z,4.57
2019-01-11T03:24:57.403Z,6.90
2019-01-11T03:27:27.029Z,1.87
2019-01-11T03:29:56.676Z,6.83
2019-01-11T03:32:26.414Z,6.03
2019-01-11T03:35:12.998Z,11.17
2019-01-11T03:37:43.046Z,8.87
2019-01-11T03:40:14.067Z,7.37
2019-01-11T03:42:43.870Z,4.80
2019-01-11T03:45:15.139Z,7.97
2019-01-11T03:47:44.938Z,6.40
2019-01-11T03:50:15.882Z,6.73
2019-01-11T03:52:45.823Z,5.43
2019-01-11T03:55:16.685Z,6.67
2019-01-11T03:57:47.544Z,8.07
2019-01-11T04:00:22.080Z,6.90
2019-01-11T04:02:51.746Z,6.13
2019-01-11T04:05:21.916Z,10.50
2019-01-11T04:07:51.618Z,6.20
2019-01-11T04:10:22.856Z,7.77
2019-01-11T04:12:52.573Z,8.40
2019-01-11T04:15:23.345Z,10.10
2019-01-11T04:18:19.383Z,7.13
2019-01-11T04:20:49.332Z,2.80
2019-01-11T04:23:19.302Z,7.70
2019-01-11T04:25:48.953Z,7.30
2019-01-11T04:28:18.604Z,9.13
2019-01-11T04:30:48.304Z,7.93
2019-01-11T04:33:17.943Z,10.20
2019-01-11T04:35:47.911Z,8.33
2019-01-11T04:38:17.547Z,7.93
2019-01-11T04:40:47.951Z,5.40
2019-01-11T04:43:17.642Z,5.47
2019-01-11T04:45:47.731Z,6.97
2019-01-11T04:48:17.524Z,6.23
2019-01-11T04:50:47.389Z,10.50
2019-01-11T04:53:17.085Z,8.30
2019-01-11T04:55:46.692Z,8.20
2019-01-11T04:58:16.340Z,9.63
2019-01-11T05:00:45.968Z,10.97
2019-01-11T05:03:15.594Z,7.63
2019-01-11T05:05:45.251Z,8.87
2019-01-11T05:08:14.936Z,3.70
2019-01-11T05:10:44.614Z,9.40
2019-01-11T05:13:39.264Z,9.27
2019-01-11T05:16:08.933Z,6.90
2019-01-11T05:18:38.905Z,9.40
2019-01-11T05:21:08.634Z,9.63
2019-01-11T05:23:38.304Z,3.80
2019-01-11T05:26:08.253Z,9.07
2019-01-11T05:28:38.526Z,12.27
2019-01-11T05:31:08.191Z,11.00
2019-01-11T05:33:38.222Z,9.17
2019-01-11T05:36:08.326Z,6.83
2019-01-11T05:38:37.924Z,9.93
2019-01-11T05:41:07.610Z,8.47
2019-01-11T05:43:37.207Z,9.60
2019-01-11T05:46:07.536Z,9.43
2019-01-11T05:48:37.183Z,11.90
2019-01-11T05:51:06.813Z,10.30
2019-01-11T05:53:36.888Z,10.40
2019-01-11T05:56:09.963Z,10.87
2019-01-11T05:58:52.307Z,4.07
2019-01-11T06:01:23.543Z,9.53
2019-01-11T06:03:53.462Z,6.63
2019-01-11T06:06:23.167Z,10.33
2019-01-11T06:08:53.332Z,5.47
2019-01-11T06:11:23.402Z,9.50
2019-01-11T06:13:53.456Z,6.70
2019-01-11T06:16:26.056Z,9.83
2019-01-11T06:18:55.706Z,10.70
2019-01-11T06:21:26.628Z,10.60
2019-01-11T06:23:56.681Z,6.47
2019-01-11T06:26:27.646Z,9.33
2019-01-11T06:28:57.648Z,5.50
2019-01-11T06:31:27.380Z,9.63
2019-01-11T06:33:57.048Z,7.70
2019-01-11T06:36:26.924Z,9.43
2019-01-11T06:38:57.149Z,7.13
2019-01-11T06:41:34.539Z,10.90
2019-01-11T06:44:04.302Z,8.97
2019-01-11T06:47:36.172Z,9.00
2019-01-11T06:50:13.028Z,9.93
2019-01-11T06:52:42.691Z,7.00
2019-01-11T06:55:12.795Z,10.07
2019-01-11T06:57:42.531Z,8.53
2019-01-11T07:00:13.880Z,10.53
2019-01-11T07:02:43.842Z,10.50
2019-01-11T07:05:13.646Z,8.90
2019-01-11T07:07:43.633Z,10.17
2019-01-11T07:10:18.201Z,10.07
2019-01-11T07:12:48.011Z,11.13
2019-01-11T07:15:18.248Z,8.83
2019-01-11T07:17:47.884Z,9.90
2019-01-11T07:20:17.621Z,8.97
2019-01-11T07:22:47.331Z,9.30
2019-01-11T07:25:17.093Z,7.03
2019-01-11T07:27:57.204Z,8.10
2019-01-11T07:30:34.242Z,9.13
2019-01-11T07:33:05.418Z,9.80
2019-01-11T07:35:50.613Z,9.83
2019-01-11T07:38:20.699Z,9.50
2019-01-11T07:40:50.300Z,8.00
2019-01-11T07:43:19.941Z,9.10
2019-01-11T07:45:49.567Z,9.50
2019-01-11T07:48:19.612Z,8.07
2019-01-11T07:50:49.489Z,8.23
2019-01-11T07:53:20.387Z,8.43
2019-01-11T07:55:50.077Z,7.80
2019-01-11T07:58:19.902Z,7.67
2019-01-11T08:00:49.459Z,7.93
2019-01-11T08:03:19.200Z,4.23
2019-01-11T08:05:49.070Z,7.53
2019-01-11T08:08:18.758Z,7.00
2019-01-11T08:10:48.427Z,8.90
2019-01-11T08:13:18.570Z,8.27
2019-01-11T08:15:48.960Z,5.93
2019-01-11T08:18:18.816Z,8.07
2019-01-11T08:20:55.889Z,7.57
2019-01-11T08:23:20.536Z,10.37
2019-01-11T08:25:50.277Z,9.30
2019-01-11T08:28:19.881Z,8.10
2019-01-11T08:30:49.715Z,8.97
2019-01-11T08:33:19.767Z,7.07
2019-01-11T08:35:49.823Z,6.37
2019-01-11T08:38:19.486Z,6.90
2019-01-11T08:40:49.130Z,6.43
2019-01-11T08:43:19.476Z,8.60
2019-01-11T08:45:49.204Z,9.47
2019-01-11T08:48:22.096Z,9.33
2019-01-11T08:50:52.017Z,8.43
2019-01-11T08:53:21.728Z,9.97
2019-01-11T08:55:51.842Z,8.23
2019-01-11T08:58:21.563Z,8.07
2019-01-11T09:00:51.844Z,7.90
2019-01-11T09:03:21.431Z,8.27
2019-01-11T09:05:51.072Z,7.47
2019-01-11T09:08:20.933Z,7.20
2019-01-11T09:10:50.620Z,5.73
2019-01-11T09:13:21.065Z,5.03
2019-01-11T09:15:51.013Z,7.03
2019-01-11T09:18:27.676Z,7.13
2019-01-11T09:20:57.277Z,4.97
2019-01-11T09:23:26.879Z,5.43
2019-01-11T09:25:56.798Z,5.07
2019-01-11T09:28:27.287Z,4.10
2019-01-11T09:30:56.889Z,5.33
2019-01-11T09:33:26.524Z,4.87
2019-01-11T09:35:56.193Z,4.47
2019-01-11T09:38:25.900Z,4.53
2019-01-11T09:40:55.962Z,4.67
2019-01-11T09:43:25.568Z,4.23
2019-01-11T09:45:55.318Z,3.67
2019-01-11T09:48:25.007Z,3.93
2019-01-11T09:50:54.945Z,3.93
2019-01-11T09:53:24.660Z,4.20
2019-01-11T09:55:54.310Z,3.67
2019-01-11T09:58:24.436Z,2.70
2019-01-11T10:00:59.106Z,4.97
2019-01-11T10:03:25.318Z,2.70
2019-01-11T10:05:54.967Z,2.33
2019-01-11T10:08:25.202Z,3.10
2019-01-11T10:10:55.396Z,3.30
2019-01-11T10:13:25.213Z,2.23
2019-01-11T10:15:55.061Z,3.40
2019-01-11T10:18:24.927Z,2.53
2019-01-11T10:20:54.556Z,2.27
2019-01-11T10:23:24.155Z,2.03
2019-01-11T10:25:54.302Z,1.63
2019-01-11T10:28:23.938Z,1.77
2019-01-11T10:30:53.982Z,3.10
2019-01-11T10:33:23.630Z,2.03
2019-01-11T10:35:53.544Z,2.70
2019-01-11T10:38:23.184Z,2.30
2019-01-11T10:40:52.783Z,2.70
2019-01-11T10:43:22.434Z,2.57
2019-01-11T10:45:52.035Z,1.43
2019-01-11T10:48:22.820Z,2.27
2019-01-11T10:50:52.876Z,1.73
2019-01-11T10:53:22.930Z,2.20
2019-01-11T10:55:52.837Z,1.90
2019-01-11T10:58:22.427Z,2.20
2019-01-11T11:00:52.825Z,1.67
2019-01-11T11:03:22.373Z,2.20
2019-01-11T11:05:52.106Z,2.70
2019-01-11T11:08:21.823Z,1.70
2019-01-11T11:10:51.527Z,1.97
2019-01-11T11:13:21.236Z,1.60
2019-01-11T11:15:51.166Z,1.90
2019-01-11T11:18:20.754Z,1.40
2019-01-11T11:20:50.455Z,1.37
2019-01-11T11:23:20.143Z,1.53
2019-01-11T11:25:49.944Z,1.80
2019-01-11T11:28:19.949Z,1.57
2019-01-11T11:30:51.010Z,1.67
2019-01-11T11:33:21.217Z,1.70
2019-01-11T11:35:51.021Z,1.67
2019-01-11T11:38:21.030Z,1.60
2019-01-11T11:40:50.841Z,0.63
2019-01-11T11:43:20.488Z,1.60
2019-01-11T11:45:50.144Z,1.00
2019-01-11T11:48:20.708Z,0.87
2019-01-11T11:50:50.701Z,1.57
2019-01-11T11:53:20.751Z,1.73
2019-01-11T11:55:50.331Z,1.70
2019-01-11T11:58:19.896Z,1.93
2019-01-11T12:00:49.577Z,1.30
2019-01-11T12:03:19.583Z,1.27
2019-01-11T12:05:49.583Z,1.53
2019-01-11T12:08:19.242Z,1.07
2019-01-11T12:10:49.495Z,1.73
2019-01-11T12:13:19.550Z,1.13
2019-01-11T12:15:49.426Z,1.23
2019-01-11T12:18:19.332Z,1.23
2019-01-11T12:20:49.122Z,1.00
2019-01-11T12:23:19.912Z,1.23
2019-01-11T12:25:49.507Z,1.10
2019-01-11T12:28:19.121Z,0.70
2019-01-11T12:30:48.770Z,0.70
2019-01-11T12:33:18.463Z,1.53
2019-01-11T12:35:48.040Z,1.30
2019-01-11T12:38:17.697Z,1.07
2019-01-11T12:40:47.632Z,1.23
2019-01-11T12:43:17.603Z,1.20
2019-01-11T12:45:47.245Z,1.07
2019-01-11T12:48:17.173Z,1.50
2019-01-11T12:50:46.832Z,0.77
2019-01-11T12:53:16.617Z,1.20
2019-01-11T12:55:46.536Z,1.10
2019-01-11T12:58:16.278Z,0.60
2019-01-11T13:00:45.874Z,1.23
2019-01-11T13:03:15.846Z,1.30
2019-01-11T13:05:45.687Z,1.00
2019-01-11T13:08:15.661Z,1.00
2019-01-11T13:10:45.744Z,1.20
2019-01-11T13:13:16.254Z,0.57
2019-01-11T13:15:46.715Z,0.80
2019-01-11T13:18:16.606Z,1.00
2019-01-11T13:20:46.593Z,0.87
2019-01-11T13:23:16.771Z,0.70
2019-01-11T13:25:46.906Z,1.30
2019-01-11T13:28:16.552Z,0.87
2019-01-11T13:30:46.182Z,1.20
2019-01-11T13:33:15.857Z,1.27
2019-01-11T13:35:45.862Z,1.47
2019-01-11T13:38:15.689Z,0.80
2019-01-11T13:40:45.708Z,1.47
2019-01-11T13:43:15.765Z,1.20
2019-01-11T13:45:46.401Z,1.10
2019-01-11T13:48:16.130Z,1.70
2019-01-11T13:50:45.800Z,1.10
2019-01-11T13:53:20.159Z,1.03
2019-01-11T13:55:49.877Z,1.80
2019-01-11T13:58:19.619Z,0.80
2019-01-11T14:00:49.302Z,1.20
2019-01-11T14:03:18.985Z,1.10
2019-01-11T14:05:48.581Z,1.40
2019-01-11T14:08:18.169Z,1.77
2019-01-11T14:10:47.954Z,1.03
2019-01-11T14:13:18.185Z,1.03
2019-01-11T14:15:48.152Z,1.87
2019-01-11T14:18:17.981Z,1.57
2019-01-11T14:20:48.150Z,1.63
2019-01-11T14:23:18.450Z,2.10
2019-01-11T14:25:48.061Z,1.60
2019-01-11T14:28:17.753Z,2.33
2019-01-11T14:30:47.561Z,1.73
2019-01-11T14:33:17.872Z,2.53
2019-01-11T14:35:47.629Z,2.07
2019-01-11T14:38:17.477Z,2.10
2019-01-11T14:40:47.471Z,1.70
2019-01-11T14:43:17.341Z,2.10
2019-01-11T14:45:47.326Z,1.30
2019-01-11T14:48:17.018Z,1.80
2019-01-11T14:50:46.908Z,1.80
2019-01-11T14:53:16.562Z,1.40
2019-01-11T14:55:46.274Z,1.20
2019-01-11T14:58:15.880Z,1.17
2019-01-11T15:00:45.610Z,1.07
2019-01-11T15:03:15.631Z,0.70
2019-01-11T15:05:45.717Z,1.50
2019-01-11T15:08:15.321Z,2.23
2019-01-11T15:10:45.382Z,0.87
2019-01-11T15:13:15.402Z,2.33
2019-01-11T15:15:45.791Z,2.23
2019-01-11T15:18:15.618Z,1.50
2019-01-11T15:20:45.245Z,1.83
2019-01-11T15:23:15.380Z,1.30
2019-01-11T15:25:45.021Z,1.27
2019-01-11T15:28:14.663Z,1.23
2019-01-11T15:30:45.513Z,1.67
2019-01-11T15:33:15.642Z,1.40
2019-01-11T15:35:45.564Z,0.40
2019-01-11T15:38:15.355Z,1.27
2019-01-11T15:40:45.010Z,1.53
2019-01-11T15:43:14.953Z,1.70
2019-01-11T15:45:47.944Z,1.97
2019-01-11T15:48:19.158Z,1.33
2019-01-11T15:50:57.009Z,2.23
2019-01-11T15:53:29.693Z,0.77
2019-01-11T15:56:01.309Z,1.53
2019-01-11T15:58:31.073Z,2.10
2019-01-11T16:01:00.882Z,2.47
2019-01-11T16:03:30.620Z,1.87
2019-01-11T16:06:41.583Z,2.13
2019-01-11T16:09:15.034Z,2.53
2019-01-11T16:11:51.481Z,2.30
2019-01-11T16:14:42.258Z,2.03
2019-01-11T16:17:14.153Z,2.97
2019-01-11T16:19:43.976Z,3.30
2019-01-11T16:22:14.011Z,2.70
2019-01-11T16:24:44.008Z,2.50
2019-01-11T16:27:13.990Z,2.50
2019-01-11T16:29:43.898Z,2.00
2019-01-11T16:32:13.501Z,2.03
2019-01-11T16:34:43.516Z,4.30
2019-01-11T16:37:14.489Z,1.30
2019-01-11T16:39:44.368Z,1.77
2019-01-11T16:42:14.742Z,2.57
2019-01-11T16:44:45.629Z,3.30
2019-01-11T16:47:15.458Z,2.43
2019-01-11T16:49:45.656Z,3.67
2019-01-11T16:52:15.517Z,2.07
2019-01-11T16:54:47.797Z,3.07
2019-01-11T16:57:17.989Z,4.43
2019-01-11T16:59:47.737Z,2.70
2019-01-11T17:02:17.661Z,2.87
2019-01-11T17:04:47.758Z,3.77
2019-01-11T17:07:17.476Z,3.50
2019-01-11T17:09:47.381Z,2.83
2019-01-11T17:12:17.191Z,2.03
2019-01-11T17:14:46.875Z,1.80
2019-01-11T17:17:16.662Z,2.00
2019-01-11T17:19:47.098Z,3.60
2019-01-11T17:22:17.345Z,3.03
2019-01-11T17:24:47.442Z,3.50
2019-01-11T17:27:18.225Z,3.10
2019-01-11T17:29:52.723Z,1.97
2019-01-11T17:32:23.355Z,2.53
2019-01-11T17:34:55.704Z,1.77
2019-01-11T17:37:26.708Z,3.53
2019-01-11T17:39:57.778Z,3.37
2019-01-11T17:42:28.321Z,4.03
2019-01-11T17:44:58.426Z,3.90
2019-01-11T17:47:28.317Z,3.17
2019-01-11T17:50:01.163Z,2.90
2019-01-11T17:52:29.792Z,10.33
2019-01-11T17:54:59.616Z,9.13
2019-01-11T17:57:29.234Z,4.33
2019-01-11T17:59:58.979Z,5.90
2019-01-11T18:02:31.293Z,4.47
2019-01-11T18:05:01.313Z,5.33
2019-01-11T18:07:31.046Z,3.93
2019-01-11T18:10:01.846Z,2.40
2019-01-11T18:12:31.596Z,3.07
2019-01-11T18:15:01.359Z,4.10
2019-01-11T18:17:31.342Z,2.80
2019-01-11T18:20:02.134Z,2.33
2019-01-11T18:22:31.990Z,3.97
2019-01-11T18:25:02.101Z,2.23
2019-01-11T18:27:33.455Z,2.70
2019-01-11T18:30:03.618Z,3.23
2019-01-11T18:32:33.271Z,2.17
2019-01-11T18:35:02.955Z,3.60
2019-01-11T18:37:33.124Z,3.43
2019-01-11T18:40:02.824Z,2.90
2019-01-11T18:42:32.914Z,3.17
2019-01-11T18:45:02.731Z,2.87
2019-01-11T18:47:32.509Z,1.97
2019-01-11T18:50:03.289Z,2.40
2019-01-11T18:52:34.342Z,3.37
2019-01-11T18:55:04.261Z,2.87
2019-01-11T18:57:34.103Z,2.87
2019-01-11T19:00:05.104Z,3.47
2019-01-11T19:02:35.041Z,2.40
2019-01-11T19:05:06.061Z,2.70
2019-01-11T19:07:36.809Z,3.23
2019-01-11T19:10:09.736Z,4.00
2019-01-11T19:12:39.816Z,2.97
2019-01-11T19:15:11.909Z,3.13
2019-01-11T19:17:41.711Z,3.47
2019-01-11T19:20:31.502Z,2.67
2019-01-11T19:23:02.590Z,2.73
2019-01-11T19:25:32.396Z,2.90
2019-01-11T19:28:02.101Z,2.80
2019-01-11T19:30:32.322Z,3.80
2019-01-11T19:33:02.066Z,2.47
2019-01-11T19:35:31.741Z,3.00
2019-01-11T19:38:01.456Z,3.70
2019-01-11T19:40:31.183Z,4.13
2019-01-11T19:43:01.536Z,3.40
2019-01-11T19:45:31.554Z,4.43
2019-01-11T19:48:01.176Z,5.03
2019-01-11T19:50:31.437Z,3.20
2019-01-11T19:53:01.115Z,4.03
2019-01-11T19:55:31.374Z,2.07
2019-01-11T19:58:01.728Z,4.50
2019-01-11T20:00:31.681Z,3.20
2019-01-11T20:03:01.622Z,2.93
2019-01-11T20:05:31.951Z,2.80
2019-01-11T20:08:02.969Z,4.00
2019-01-11T20:10:35.540Z,2.13
2019-01-11T20:13:05.761Z,2.90
2019-01-11T20:15:35.696Z,4.10
2019-01-11T20:18:06.111Z,2.33
2019-01-11T20:20:36.200Z,2.93
2019-01-11T20:23:06.240Z,1.83
2019-01-11T20:25:36.272Z,2.93
2019-01-11T20:28:06.708Z,3.00
2019-01-11T20:30:36.896Z,3.57
2019-01-11T20:33:07.240Z,3.17
2019-01-11T20:35:37.341Z,4.23
2019-01-11T20:38:07.327Z,3.00
2019-01-11T20:40:37.567Z,4.23
2019-01-11T20:43:07.463Z,4.17
2019-01-11T20:45:37.072Z,3.00
2019-01-11T20:48:06.773Z,4.20
2019-01-11T20:50:37.635Z,3.73
2019-01-11T20:53:07.325Z,3.87
2019-01-11T20:55:37.016Z,3.60
2019-01-11T20:58:06.784Z,3.00
2019-01-11T21:00:36.577Z,5.07
2019-01-11T21:03:09.216Z,1.97
2019-01-11T21:05:39.336Z,2.60
2019-01-11T21:08:09.698Z,4.00
2019-01-11T21:10:40.582Z,4.03
2019-01-11T21:13:10.558Z,4.03
2019-01-11T21:15:41.708Z,3.57
2019-01-11T21:18:11.693Z,2.97
2019-01-11T21:20:41.370Z,4.33
2019-01-11T21:23:11.298Z,2.37
2019-01-11T21:25:40.888Z,3.50
2019-01-11T21:28:10.813Z,4.13
2019-01-11T21:30:40.501Z,5.33
2019-01-11T21:33:10.485Z,3.63
2019-01-11T21:35:40.112Z,5.60
2019-01-11T21:38:09.805Z,4.47
2019-01-11T21:40:39.528Z,3.87
2019-01-11T21:43:09.689Z,3.53
2019-01-11T21:45:39.461Z,2.40
2019-01-11T21:48:11.583Z,3.90
2019-01-11T21:50:41.271Z,2.87
2019-01-11T21:53:11.125Z,3.20
2019-01-11T21:55:41.434Z,3.40
2019-01-11T21:58:12.188Z,2.70
2019-01-11T22:00:43.700Z,2.93
2019-01-11T22:03:18.660Z,3.20
2019-01-11T22:05:48.881Z,2.97
2019-01-11T22:08:18.769Z,2.97
2019-01-11T22:10:48.473Z,4.03
2019-01-11T22:13:18.533Z,4.77
2019-01-11T22:15:48.361Z,4.03
2019-01-11T22:18:18.237Z,2.87
2019-01-11T22:20:48.268Z,4.23
2019-01-11T22:23:23.689Z,3.53
2019-01-11T22:25:49.829Z,3.03
2019-01-11T22:28:19.883Z,1.47
2019-01-11T22:30:49.822Z,3.53
2019-01-11T22:33:19.607Z,2.57
2019-01-11T22:35:49.334Z,1.40
2019-01-11T22:38:19.088Z,2.77
2019-01-11T22:40:48.730Z,3.20
2019-01-11T22:43:18.411Z,3.43
2019-01-11T22:45:48.183Z,6.07
2019-01-11T22:48:17.915Z,3.20
2019-01-11T22:50:47.737Z,3.33
2019-01-11T22:53:17.867Z,2.80
2019-01-11T22:55:47.559Z,2.50
2019-01-11T22:58:17.302Z,3.43
2019-01-11T23:01:18.176Z,2.90
2019-01-11T23:03:50.925Z,1.30
2019-01-11T23:07:02.929Z,2.87
2019-01-11T23:09:41.496Z,2.60
2019-01-11T23:12:58.589Z,2.20
2019-01-11T23:15:40.125Z,3.93
2019-01-11T23:18:25.259Z,3.10
2019-01-11T23:20:58.742Z,2.30
2019-01-11T23:23:28.443Z,2.47
2019-01-11T23:25:58.588Z,3.60
2019-01-11T23:28:28.265Z,3.07
2019-01-11T23:30:57.934Z,2.00
2019-01-11T23:33:27.897Z,2.20
2019-01-11T23:35:57.508Z,2.17
2019-01-11T23:38:28.755Z,2.93
2019-01-11T23:40:59.052Z,2.70
2019-01-11T23:43:29.908Z,2.47
2019-01-11T23:46:00.357Z,2.27
2019-01-11T23:48:30.485Z,2.00
2019-01-11T23:51:00.199Z,2.17
2019-01-11T23:53:31.044Z,2.10
2019-01-11T23:56:01.608Z,3.47
2019-01-11T23:58:32.340Z,3.00
